createdAt,value
2023-02-12T00:02:03.530Z,9.52
2023-02-12T00:04:30.301Z,10.15
2023-02-12T00:06:56.975Z,8.32
2023-02-12T00:09:23.646Z,8.70
2023-02-12T00:11:50.351Z,7.07
2023-02-12T00:14:17.508Z,9.07
2023-02-12T00:16:44.307Z,10.98
2023-02-12T00:19:10.963Z,10.82
2023-02-12T00:21:37.645Z,11.20
2023-02-12T00:24:04.786Z,7.93
2023-02-12T00:26:31.504Z,12.95
2023-02-12T00:28:58.253Z,8.73
2023-02-12T00:31:28.760Z,8.77
2023-02-12T00:33:57.226Z,8.27
2023-02-12T00:36:26.431Z,10.18
2023-02-12T00:38:54.802Z,7.95
2023-02-12T00:41:22.801Z,10.23
2023-02-12T00:43:50.524Z,7.20
2023-02-12T00:46:17.670Z,15.73
2023-02-12T00:48:44.925Z,9.30
2023-02-12T00:51:12.775Z,8.32
2023-02-12T00:53:39.632Z,9.65
2023-02-12T00:56:07.339Z,9.75
2023-02-12T00:58:34.079Z,9.07
2023-02-12T01:01:00.857Z,10.57
2023-02-12T01:03:27.570Z,9.35
2023-02-12T01:05:54.767Z,9.90
2023-02-12T01:08:21.763Z,9.65
2023-02-12T01:10:56.701Z,12.50
2023-02-12T01:13:25.475Z,10.63
2023-02-12T01:16:03.055Z,12.15
2023-02-12T01:18:30.001Z,12.25
2023-02-12T01:20:57.708Z,12.93
2023-02-12T01:23:24.790Z,11.02
2023-02-12T01:25:52.442Z,11.82
2023-02-12T01:28:19.388Z,11.25
2023-02-12T01:30:46.155Z,12.45
2023-02-12T01:33:12.859Z,12.32
2023-02-12T01:35:39.524Z,13.57
2023-02-12T01:38:06.227Z,14.02
2023-02-12T01:40:32.946Z,12.73
2023-02-12T01:43:03.147Z,10.38
2023-02-12T01:45:46.797Z,11.63
2023-02-12T01:48:16.282Z,14.60
2023-02-12T01:50:44.188Z,11.73
2023-02-12T01:53:19.860Z,11.65
2023-02-12T01:55:49.240Z,14.70
2023-02-12T01:58:16.954Z,15.02
2023-02-12T02:00:43.723Z,13.05
2023-02-12T02:03:10.649Z,12.55
2023-02-12T02:05:47.332Z,12.38
2023-02-12T02:08:14.372Z,10.35
2023-02-12T02:10:41.294Z,8.13
2023-02-12T02:13:27.055Z,11.25
2023-02-12T02:15:59.284Z,9.10
2023-02-12T02:18:57.667Z,10.27
2023-02-12T02:21:51.328Z,7.90
2023-02-12T02:24:43.696Z,8.95
2023-02-12T02:27:14.887Z,7.57
2023-02-12T02:29:46.981Z,8.68
2023-02-12T02:32:22.548Z,9.00
2023-02-12T02:35:12.915Z,9.13
2023-02-12T02:37:47.778Z,9.68
2023-02-12T02:40:23.396Z,8.88
2023-02-12T02:43:10.719Z,9.38
2023-02-12T02:45:46.037Z,7.45
2023-02-12T02:48:24.945Z,10.20
2023-02-12T02:50:57.730Z,10.43
2023-02-12T02:53:32.180Z,7.65
2023-02-12T02:56:01.984Z,8.48
2023-02-12T02:58:38.951Z,8.73
2023-02-12T03:01:10.906Z,9.68
2023-02-12T03:03:50.181Z,6.63
2023-02-12T03:06:30.488Z,7.75
2023-02-12T03:09:02.979Z,6.72
2023-02-12T03:14:18.914Z,8.38
2023-02-12T03:17:02.376Z,10.68
2023-02-12T03:19:40.267Z,12.40
2023-02-12T03:22:11.928Z,14.05
2023-02-12T03:24:47.048Z,11.30
2023-02-12T03:27:21.581Z,14.20
2023-02-12T03:29:48.535Z,15.57
2023-02-12T03:32:29.328Z,15.70
2023-02-12T03:35:23.418Z,8.90
2023-02-12T03:37:58.338Z,9.02
2023-02-12T03:41:00.227Z,7.00
2023-02-12T03:43:38.249Z,8.45
2023-02-12T03:46:17.229Z,8.35
2023-02-12T03:49:04.517Z,10.75
2023-02-12T03:51:34.099Z,9.30
2023-02-12T03:54:01.517Z,11.13
2023-02-12T03:56:54.066Z,9.50
2023-02-12T03:59:23.445Z,8.38
2023-02-12T04:01:52.080Z,9.50
2023-02-12T04:04:19.636Z,9.95
2023-02-12T04:06:49.171Z,9.82
2023-02-12T04:09:16.822Z,10.45
2023-02-12T04:12:11.119Z,12.25
2023-02-12T04:14:59.824Z,10.98
2023-02-12T04:17:44.284Z,9.55
2023-02-12T04:20:30.412Z,12.48
2023-02-12T04:23:19.284Z,10.50
2023-02-12T04:26:09.944Z,12.50
2023-02-12T04:28:53.723Z,10.60
2023-02-12T04:31:32.016Z,11.02
2023-02-12T04:34:22.769Z,9.15
2023-02-12T04:37:25.972Z,11.48
2023-02-12T04:39:54.068Z,11.45
2023-02-12T04:42:21.079Z,11.73
2023-02-12T04:44:47.981Z,8.40
2023-02-12T04:47:16.046Z,10.48
2023-02-12T04:49:42.999Z,11.00
2023-02-12T04:52:09.943Z,10.80
2023-02-12T04:54:36.891Z,11.10
2023-02-12T04:57:03.930Z,12.02
2023-02-12T04:59:30.693Z,9.52
2023-02-12T05:01:57.406Z,8.30
2023-02-12T05:04:24.050Z,8.20
2023-02-12T05:06:50.720Z,10.32
2023-02-12T05:09:20.136Z,8.32
2023-02-12T05:11:47.025Z,9.68
2023-02-12T05:14:13.930Z,11.93
2023-02-12T05:16:40.723Z,8.82
2023-02-12T05:19:09.444Z,8.05
2023-02-12T05:21:37.545Z,8.52
2023-02-12T05:24:04.710Z,6.78
2023-02-12T05:26:31.478Z,6.20
2023-02-12T05:28:58.189Z,8.52
2023-02-12T05:31:25.192Z,6.93
2023-02-12T05:33:52.343Z,9.23
2023-02-12T05:36:22.233Z,9.35
2023-02-12T05:38:49.571Z,9.85
2023-02-12T05:42:06.596Z,8.35
2023-02-12T05:44:33.318Z,10.05
2023-02-12T05:46:59.970Z,8.05
2023-02-12T05:49:26.732Z,14.68
2023-02-12T05:51:53.371Z,46.38
2023-02-12T05:54:20.204Z,46.55
2023-02-12T05:56:48.108Z,41.65
2023-02-12T05:59:20.463Z,42.70
2023-02-12T06:01:48.477Z,40.97
2023-02-12T06:04:20.784Z,27.27
2023-02-12T06:06:47.556Z,12.57
2023-02-12T06:09:14.634Z,13.85
2023-02-12T06:11:41.667Z,13.52
2023-02-12T06:14:12.216Z,12.82
2023-02-12T06:16:38.993Z,8.63
2023-02-12T06:19:06.289Z,9.25
2023-02-12T06:21:33.611Z,10.43
2023-02-12T06:24:00.747Z,9.52
2023-02-12T06:26:27.455Z,10.35
2023-02-12T06:28:54.409Z,9.60
2023-02-12T06:31:22.706Z,11.77
2023-02-12T06:33:50.748Z,12.65
2023-02-12T06:36:18.022Z,18.67
2023-02-12T06:38:45.057Z,22.08
2023-02-12T06:41:12.291Z,20.48
2023-02-12T06:43:42.099Z,16.70
2023-02-12T06:46:09.425Z,23.95
2023-02-12T06:48:36.641Z,19.35
2023-02-12T06:51:18.444Z,17.63
2023-02-12T06:53:45.382Z,14.55
2023-02-12T06:56:13.298Z,15.13
2023-02-12T06:58:47.037Z,12.82
2023-02-12T07:01:19.737Z,14.82
2023-02-12T07:03:54.654Z,13.00
2023-02-12T07:06:22.724Z,15.95
2023-02-12T07:08:49.795Z,17.05
2023-02-12T07:11:16.953Z,20.92
2023-02-12T07:13:45.251Z,16.80
2023-02-12T07:16:15.500Z,18.50
2023-02-12T07:18:44.383Z,16.63
2023-02-12T07:21:12.388Z,17.67
2023-02-12T07:23:39.404Z,17.85
2023-02-12T07:26:11.017Z,14.85
2023-02-12T07:28:38.139Z,14.57
2023-02-12T07:31:16.631Z,17.55
2023-02-12T07:33:44.200Z,15.30
2023-02-12T07:36:16.866Z,16.45
2023-02-12T07:38:43.744Z,16.42
2023-02-12T07:41:16.998Z,16.77
2023-02-12T07:43:45.450Z,16.35
2023-02-12T07:46:21.318Z,36.90
2023-02-12T07:48:48.644Z,28.48
2023-02-12T07:51:19.188Z,20.90
2023-02-12T07:53:46.240Z,21.05
2023-02-12T07:56:15.829Z,21.02
2023-02-12T07:58:46.983Z,22.20
2023-02-12T08:01:31.669Z,14.73
2023-02-12T08:04:00.923Z,19.77
2023-02-12T08:06:30.425Z,21.08
2023-02-12T08:08:59.260Z,29.42
2023-02-12T08:11:28.194Z,15.05
2023-02-12T08:13:55.193Z,11.23
2023-02-12T08:16:23.835Z,22.30
2023-02-12T08:18:50.940Z,22.13
2023-02-12T08:21:20.428Z,17.05
2023-02-12T08:23:50.622Z,12.27
2023-02-12T08:26:28.807Z,14.13
2023-02-12T08:29:02.289Z,14.70
2023-02-12T08:31:31.631Z,15.52
2023-02-12T08:33:59.461Z,20.63
2023-02-12T08:36:28.666Z,14.45
2023-02-12T08:38:58.252Z,17.23
2023-02-12T08:41:29.519Z,18.42
2023-02-12T08:43:59.314Z,18.63
2023-02-12T08:46:34.242Z,21.00
2023-02-12T08:49:11.246Z,17.63
2023-02-12T08:51:41.016Z,15.45
2023-02-12T08:54:10.928Z,19.27
2023-02-12T08:56:38.333Z,19.63
2023-02-12T08:59:07.063Z,18.63
2023-02-12T09:01:38.325Z,21.50
2023-02-12T09:04:06.243Z,21.13
2023-02-12T09:06:35.466Z,22.00
2023-02-12T09:09:02.881Z,21.13
2023-02-12T09:11:32.764Z,24.02
2023-02-12T09:14:02.002Z,22.73
2023-02-12T09:16:30.414Z,23.88
2023-02-12T09:18:57.511Z,20.63
2023-02-12T09:21:24.620Z,19.05
2023-02-12T09:23:51.638Z,18.45
2023-02-12T09:26:20.921Z,20.27
2023-02-12T09:28:49.772Z,20.23
2023-02-12T09:31:29.026Z,17.48
2023-02-12T09:33:59.638Z,19.65
2023-02-12T09:36:26.619Z,19.33
2023-02-12T09:38:54.231Z,16.65
2023-02-12T09:41:34.740Z,18.55
2023-02-12T09:44:10.171Z,20.20
2023-02-12T09:46:46.135Z,16.65
2023-02-12T09:49:43.146Z,18.95
2023-02-12T09:52:20.054Z,19.50
2023-02-12T09:54:49.558Z,19.13
2023-02-12T09:57:29.489Z,21.05
2023-02-12T09:59:59.944Z,16.67
2023-02-12T10:02:26.676Z,19.13
2023-02-12T10:05:01.153Z,19.73
2023-02-12T10:07:43.762Z,17.48
2023-02-12T10:10:25.469Z,19.27
2023-02-12T10:13:06.076Z,21.25
2023-02-12T10:15:52.638Z,18.20
2023-02-12T10:18:32.928Z,19.08
2023-02-12T10:21:25.961Z,18.75
2023-02-12T10:26:35.762Z,18.42
2023-02-12T10:29:14.594Z,16.35
2023-02-12T10:31:46.858Z,18.70
2023-02-12T10:34:21.996Z,18.30
2023-02-12T10:36:50.529Z,17.92
2023-02-12T10:39:23.987Z,16.48
2023-02-12T10:42:01.202Z,17.65
2023-02-12T10:44:28.262Z,20.55
2023-02-12T10:46:55.397Z,18.67
2023-02-12T10:49:22.484Z,16.67
2023-02-12T10:52:26.825Z,14.85
2023-02-12T10:54:53.547Z,14.05
2023-02-12T10:57:27.131Z,15.73
2023-02-12T10:59:59.406Z,15.55
2023-02-12T11:02:34.066Z,13.98
2023-02-12T11:05:22.842Z,14.18
2023-02-12T11:07:51.215Z,16.40
2023-02-12T11:10:39.833Z,12.10
2023-02-12T11:13:22.767Z,13.35
2023-02-12T11:15:49.961Z,14.32
2023-02-12T11:18:32.836Z,15.18
2023-02-12T11:21:11.609Z,12.68
2023-02-12T11:23:39.593Z,14.70
2023-02-12T11:26:07.576Z,13.10
2023-02-12T11:28:36.655Z,16.17
2023-02-12T11:31:22.314Z,14.52
2023-02-12T11:34:09.646Z,14.98
2023-02-12T11:36:40.699Z,16.73
2023-02-12T11:39:19.228Z,15.15
2023-02-12T11:41:51.833Z,12.68
2023-02-12T11:46:51.710Z,12.18
2023-02-12T11:49:23.827Z,15.38
2023-02-12T11:51:50.842Z,14.73
2023-02-12T11:54:22.633Z,14.85
2023-02-12T11:56:49.800Z,13.93
2023-02-12T11:59:34.080Z,10.95
2023-02-12T12:02:28.097Z,10.43
2023-02-12T12:05:07.898Z,13.65
2023-02-12T12:07:38.543Z,10.15
2023-02-12T12:10:17.695Z,10.63
2023-02-12T12:12:52.919Z,9.55
2023-02-12T12:15:58.562Z,12.35
2023-02-12T12:19:03.873Z,9.63
2023-02-12T12:21:48.597Z,9.80
2023-02-12T12:24:20.688Z,9.45
2023-02-12T12:27:00.224Z,8.50
2023-02-12T12:29:51.163Z,8.20
2023-02-12T12:32:19.543Z,7.97
2023-02-12T12:34:47.121Z,8.50
2023-02-12T12:37:29.611Z,8.93
2023-02-12T12:40:05.198Z,7.00
2023-02-12T12:42:40.788Z,7.53
2023-02-12T12:45:29.824Z,7.45
2023-02-12T12:48:15.833Z,6.10
2023-02-12T12:51:05.372Z,7.47
2023-02-12T12:54:01.927Z,7.00
2023-02-12T12:56:37.479Z,7.25
2023-02-12T12:59:16.710Z,6.65
2023-02-12T13:02:08.501Z,6.45
2023-02-12T13:04:47.528Z,6.97
2023-02-12T13:07:45.304Z,7.07
2023-02-12T13:10:40.113Z,5.85
2023-02-12T13:13:18.919Z,7.45
2023-02-12T13:15:56.168Z,6.32
2023-02-12T13:18:48.704Z,7.00
2023-02-12T13:21:37.635Z,6.90
2023-02-12T13:24:30.273Z,8.63
2023-02-12T13:27:00.897Z,7.32
2023-02-12T13:29:49.311Z,5.20
2023-02-12T13:32:37.622Z,6.90
2023-02-12T13:35:07.257Z,5.80
2023-02-12T13:37:45.427Z,5.85
2023-02-12T13:40:21.315Z,5.82
2023-02-12T13:42:53.316Z,7.35
2023-02-12T13:45:53.332Z,4.93
2023-02-12T13:48:22.875Z,5.60
2023-02-12T13:51:16.747Z,5.78
2023-02-12T13:54:01.536Z,4.50
2023-02-12T13:56:49.234Z,5.13
2023-02-12T13:59:31.317Z,4.78
2023-02-12T14:01:59.530Z,5.97
2023-02-12T14:04:52.466Z,4.65
2023-02-12T14:10:01.903Z,3.50
2023-02-12T14:12:33.638Z,3.70
2023-02-12T14:15:21.469Z,5.13
2023-02-12T14:18:15.024Z,4.22
2023-02-12T14:20:41.746Z,4.15
2023-02-12T14:23:28.544Z,4.50
2023-02-12T14:26:28.062Z,3.33
2023-02-12T14:28:56.702Z,4.60
2023-02-12T14:31:34.868Z,5.45
2023-02-12T14:34:11.201Z,4.53
2023-02-12T14:36:41.385Z,4.68
2023-02-12T14:39:20.316Z,5.03
2023-02-12T14:41:48.819Z,5.25
2023-02-12T14:44:18.273Z,6.75
2023-02-12T14:46:51.449Z,4.85
2023-02-12T14:49:34.127Z,5.03
2023-02-12T14:52:06.135Z,5.18
2023-02-12T14:54:37.446Z,7.53
2023-02-12T14:57:19.956Z,6.20
2023-02-12T14:59:48.439Z,5.47
2023-02-12T15:02:25.793Z,5.05
2023-02-12T15:04:56.358Z,5.82
2023-02-12T15:07:30.594Z,5.38
2023-02-12T15:10:36.913Z,6.22
2023-02-12T15:13:18.667Z,7.22
2023-02-12T15:15:50.658Z,6.85
2023-02-12T15:19:11.863Z,6.43
2023-02-12T15:21:39.070Z,7.72
2023-02-12T15:24:11.776Z,11.82
2023-02-12T15:26:48.071Z,5.20
2023-02-12T15:29:23.863Z,5.85
2023-02-12T15:31:56.869Z,5.82
2023-02-12T15:34:27.659Z,6.43
2023-02-12T15:37:03.544Z,4.93
2023-02-12T15:39:48.356Z,5.28
2023-02-12T15:42:36.242Z,4.65
2023-02-12T15:45:15.048Z,4.60
2023-02-12T15:47:43.210Z,4.47
2023-02-12T15:50:18.008Z,4.28
2023-02-12T15:52:46.796Z,4.43
2023-02-12T15:55:19.822Z,4.65
2023-02-12T15:58:01.121Z,4.90
2023-02-12T16:00:40.653Z,5.15
2023-02-12T16:03:19.121Z,5.28
2023-02-12T16:05:46.817Z,5.72
2023-02-12T16:08:18.878Z,6.10
2023-02-12T16:10:49.310Z,6.60
2023-02-12T16:13:29.213Z,4.32
2023-02-12T16:16:15.583Z,9.05
2023-02-12T16:18:43.369Z,6.70
2023-02-12T16:21:23.136Z,4.50
2023-02-12T16:23:51.491Z,5.13
2023-02-12T16:26:19.799Z,6.05
2023-02-12T16:28:49.522Z,4.55
2023-02-12T16:31:17.500Z,6.90
2023-02-12T16:33:49.572Z,15.15
2023-02-12T16:36:30.387Z,7.35
2023-02-12T16:39:03.739Z,4.97
2023-02-12T16:41:52.377Z,5.93
2023-02-12T16:44:27.453Z,5.32
2023-02-12T16:46:56.712Z,4.60
2023-02-12T16:49:25.892Z,4.22
2023-02-12T16:51:53.575Z,5.18
2023-02-12T16:54:31.973Z,4.22
2023-02-12T16:56:59.645Z,6.57
2023-02-12T16:59:26.648Z,5.55
2023-02-12T17:02:02.269Z,4.40
2023-02-12T17:04:29.472Z,3.60
2023-02-12T17:06:57.594Z,3.30
2023-02-12T17:09:24.647Z,3.92
2023-02-12T17:11:51.317Z,4.43
2023-02-12T17:14:20.033Z,5.80
2023-02-12T17:16:47.671Z,4.72
2023-02-12T17:19:14.630Z,4.03
2023-02-12T17:21:46.063Z,6.68
2023-02-12T17:24:26.041Z,4.50
2023-02-12T17:26:53.271Z,4.47
2023-02-12T17:29:22.266Z,4.13
2023-02-12T17:31:49.481Z,5.43
2023-02-12T17:34:16.716Z,4.65
2023-02-12T17:36:43.394Z,4.60
2023-02-12T17:39:12.389Z,3.97
2023-02-12T17:41:39.282Z,5.78
2023-02-12T17:44:06.079Z,6.55
2023-02-12T17:46:33.598Z,6.28
2023-02-12T17:49:00.420Z,13.23
2023-02-12T17:51:27.185Z,11.27
2023-02-12T17:53:53.887Z,10.43
2023-02-12T17:56:22.709Z,13.43
2023-02-12T17:58:49.704Z,8.38
2023-02-12T18:01:18.500Z,7.07
2023-02-12T18:03:45.316Z,7.85
2023-02-12T18:06:16.159Z,7.85
2023-02-12T18:08:43.392Z,6.57
2023-02-12T18:11:11.328Z,6.28
2023-02-12T18:13:38.451Z,6.38
2023-02-12T18:16:10.247Z,12.73
2023-02-12T18:18:39.975Z,11.75
2023-02-12T18:21:08.849Z,16.10
2023-02-12T18:23:35.741Z,25.42
2023-02-12T18:26:06.408Z,53.20
2023-02-12T18:28:33.520Z,58.00
2023-02-12T18:31:00.895Z,51.95
2023-02-12T18:33:28.551Z,50.15
2023-02-12T18:36:03.648Z,46.85
2023-02-12T18:38:30.790Z,36.28
2023-02-12T18:40:59.655Z,31.75
2023-02-12T18:43:27.279Z,26.33
2023-02-12T18:45:55.150Z,30.00
2023-02-12T18:48:22.068Z,17.92
2023-02-12T18:50:51.582Z,15.57
2023-02-12T18:53:18.750Z,13.93
2023-02-12T18:55:45.526Z,9.85
2023-02-12T18:58:12.409Z,9.48
2023-02-12T19:00:39.173Z,9.10
2023-02-12T19:03:05.847Z,8.00
2023-02-12T19:05:32.542Z,9.68
2023-02-12T19:07:59.322Z,8.73
2023-02-12T19:10:25.991Z,9.23
2023-02-12T19:12:52.857Z,11.15
2023-02-12T19:15:19.621Z,10.68
2023-02-12T19:17:46.362Z,9.23
2023-02-12T19:20:14.665Z,9.48
2023-02-12T19:22:42.390Z,9.65
2023-02-12T19:25:09.943Z,20.73
2023-02-12T19:27:36.945Z,24.05
2023-02-12T19:30:04.768Z,21.95
2023-02-12T19:32:31.418Z,15.82
2023-02-12T19:34:58.066Z,16.30
2023-02-12T19:37:24.797Z,13.23
2023-02-12T19:39:51.492Z,15.90
2023-02-12T19:42:18.167Z,12.80
2023-02-12T19:44:46.542Z,35.45
2023-02-12T19:47:13.511Z,28.52
2023-02-12T19:49:41.280Z,23.45
2023-02-12T19:52:08.166Z,23.27
2023-02-12T19:54:35.377Z,19.20
2023-02-12T19:57:03.719Z,16.92
2023-02-12T19:59:30.394Z,15.43
2023-02-12T20:01:57.129Z,12.57
2023-02-12T20:04:24.902Z,12.13
2023-02-12T20:06:52.327Z,12.20
2023-02-12T20:09:21.297Z,11.60
2023-02-12T20:11:48.219Z,10.93
2023-02-12T20:14:15.203Z,12.20
2023-02-12T20:16:44.543Z,12.27
2023-02-12T20:19:24.053Z,8.55
2023-02-12T20:21:55.180Z,10.05
2023-02-12T20:24:24.228Z,10.32
2023-02-12T20:26:51.141Z,11.05
2023-02-12T20:29:17.926Z,9.23
2023-02-12T20:31:46.143Z,12.77
2023-02-12T20:34:15.712Z,11.27
2023-02-12T20:36:45.676Z,14.02
2023-02-12T20:39:15.377Z,41.22
2023-02-12T20:41:42.372Z,26.73
2023-02-12T20:44:12.427Z,14.85
2023-02-12T20:46:42.555Z,12.02
2023-02-12T20:49:12.511Z,12.52
2023-02-12T20:51:39.379Z,24.95
2023-02-12T20:54:06.527Z,14.70
2023-02-12T20:56:35.738Z,15.15
2023-02-12T20:59:03.711Z,16.88
2023-02-12T21:01:34.553Z,38.33
2023-02-12T21:04:03.846Z,50.63
2023-02-12T21:06:31.134Z,54.95
2023-02-12T21:08:57.895Z,54.80
2023-02-12T21:11:25.730Z,25.40
2023-02-12T21:13:59.207Z,31.08
2023-02-12T21:16:29.429Z,23.27
2023-02-12T21:18:57.353Z,18.45
2023-02-12T21:21:27.169Z,18.30
2023-02-12T21:23:56.904Z,15.02
2023-02-12T21:26:25.140Z,14.70
2023-02-12T21:28:53.247Z,15.77
2023-02-12T21:31:28.354Z,16.77
2023-02-12T21:33:56.981Z,15.25
2023-02-12T21:36:27.874Z,13.45
2023-02-12T21:38:55.518Z,15.48
2023-02-12T21:41:26.576Z,18.50
2023-02-12T21:43:58.879Z,16.60
2023-02-12T21:46:26.660Z,17.95
2023-02-12T21:48:53.521Z,17.30
2023-02-12T21:51:23.483Z,25.48
2023-02-12T21:53:52.746Z,19.50
2023-02-12T21:56:20.362Z,19.92
2023-02-12T21:58:47.935Z,17.58
2023-02-12T22:01:17.540Z,19.52
2023-02-12T22:03:44.791Z,18.90
2023-02-12T22:06:13.281Z,18.88
2023-02-12T22:08:40.448Z,18.73
2023-02-12T22:11:09.758Z,20.15
2023-02-12T22:13:37.435Z,19.02
2023-02-12T22:16:09.106Z,17.00
2023-02-12T22:18:36.599Z,17.42
2023-02-12T22:21:05.199Z,21.25
2023-02-12T22:23:32.129Z,16.38
2023-02-12T22:26:10.122Z,19.25
2023-02-12T22:28:45.638Z,23.52
2023-02-12T22:31:14.644Z,20.05
2023-02-12T22:33:41.380Z,21.42
2023-02-12T22:36:09.516Z,18.60
2023-02-12T22:38:37.618Z,17.92
2023-02-12T22:41:05.775Z,18.17
2023-02-12T22:43:34.402Z,24.85
2023-02-12T22:46:01.454Z,20.65
2023-02-12T22:48:29.246Z,19.38
2023-02-12T22:50:57.316Z,20.90
2023-02-12T22:53:25.154Z,20.60
2023-02-12T22:55:52.720Z,20.27
2023-02-12T22:58:19.598Z,17.40
2023-02-12T23:00:46.305Z,19.33
2023-02-12T23:03:13.016Z,20.08
2023-02-12T23:05:39.878Z,18.17
2023-02-12T23:08:07.113Z,18.80
2023-02-12T23:10:33.935Z,18.63
2023-02-12T23:13:02.534Z,18.27
2023-02-12T23:15:30.137Z,21.77
2023-02-12T23:17:56.836Z,22.25
2023-02-12T23:20:23.759Z,20.52
2023-02-12T23:22:50.505Z,20.55
2023-02-12T23:25:17.285Z,21.30
2023-02-12T23:27:43.966Z,22.52
2023-02-12T23:30:11.128Z,19.17
2023-02-12T23:32:37.820Z,19.77
2023-02-12T23:35:04.795Z,17.73
2023-02-12T23:37:31.490Z,19.67
2023-02-12T23:39:58.163Z,18.35
2023-02-12T23:42:24.802Z,19.13
2023-02-12T23:44:51.466Z,23.88
2023-02-12T23:47:18.150Z,18.38
2023-02-12T23:49:45.140Z,21.25
2023-02-12T23:52:11.851Z,22.38
2023-02-12T23:54:38.605Z,22.45
2023-02-12T23:57:05.310Z,22.05
2023-02-12T23:59:31.992Z,25.42
